createdAt,value
2022-09-29T00:00:35.041Z,94.60
2022-09-29T00:03:04.482Z,94.20
2022-09-29T00:05:32.367Z,94.10
2022-09-29T00:08:00.306Z,94.30
2022-09-29T00:10:28.029Z,94.50
2022-09-29T00:12:55.714Z,94.30
2022-09-29T00:15:23.405Z,93.90
2022-09-29T00:18:12.742Z,94.70
2022-09-29T00:20:40.242Z,94.50
2022-09-29T00:23:07.917Z,94.60
2022-09-29T00:25:35.690Z,94.80
2022-09-29T00:28:03.706Z,95.20
2022-09-29T00:30:31.546Z,95.50
2022-09-29T00:32:59.217Z,95.60
2022-09-29T00:35:26.958Z,95.60
2022-09-29T00:37:55.954Z,95.00
2022-09-29T00:40:23.713Z,94.90
2022-09-29T00:42:51.448Z,94.40
2022-09-29T00:45:23.349Z,94.90
2022-09-29T00:48:04.442Z,95.20
2022-09-29T00:50:41.710Z,95.30
2022-09-29T00:53:12.796Z,94.80
2022-09-29T00:55:45.128Z,94.90
2022-09-29T00:58:23.076Z,94.80
2022-09-29T01:00:51.093Z,94.70
2022-09-29T01:03:22.593Z,94.10
2022-09-29T01:05:53.181Z,94.40
2022-09-29T01:08:27.807Z,94.50
2022-09-29T01:10:55.696Z,94.20
2022-09-29T01:13:24.794Z,94.30
2022-09-29T01:15:52.535Z,94.30
2022-09-29T01:18:20.416Z,94.40
2022-09-29T01:20:56.146Z,94.50
2022-09-29T01:23:44.950Z,94.60
2022-09-29T01:26:36.236Z,94.80
2022-09-29T01:29:26.898Z,94.70
2022-09-29T01:31:59.454Z,95.00
2022-09-29T01:34:38.784Z,95.30
2022-09-29T01:37:14.234Z,95.00
2022-09-29T01:39:48.555Z,94.90
2022-09-29T01:42:19.952Z,95.00
2022-09-29T01:44:50.934Z,95.00
2022-09-29T01:47:24.140Z,94.70
2022-09-29T01:49:57.502Z,94.30
2022-09-29T01:52:29.434Z,94.40
2022-09-29T01:55:00.365Z,94.80
2022-09-29T01:57:33.586Z,94.60
2022-09-29T02:00:07.092Z,94.70
2022-09-29T02:03:10.493Z,94.70
2022-09-29T02:05:44.734Z,94.40
2022-09-29T02:08:15.466Z,94.10
2022-09-29T02:10:50.621Z,94.00
2022-09-29T02:13:20.978Z,94.00
2022-09-29T02:15:53.322Z,94.00
2022-09-29T02:18:25.574Z,94.00
2022-09-29T02:20:53.311Z,94.10
2022-09-29T02:23:21.112Z,94.50
2022-09-29T02:25:51.177Z,94.80
2022-09-29T02:28:20.046Z,94.90
2022-09-29T02:30:51.214Z,94.60
2022-09-29T02:33:22.727Z,94.40
2022-09-29T02:35:59.762Z,94.40
2022-09-29T02:38:36.411Z,94.20
2022-09-29T02:41:08.257Z,94.20
2022-09-29T02:43:53.559Z,94.00
2022-09-29T02:46:35.734Z,94.20
2022-09-29T02:49:25.918Z,94.10
2022-09-29T02:51:58.576Z,94.00
2022-09-29T02:54:42.492Z,93.50
2022-09-29T02:57:20.767Z,93.40
2022-09-29T02:59:57.488Z,93.50
2022-09-29T03:02:26.068Z,93.50
2022-09-29T03:04:55.388Z,94.10
2022-09-29T03:07:23.360Z,94.40
2022-09-29T03:09:53.722Z,94.40
2022-09-29T03:12:21.450Z,94.50
2022-09-29T03:14:49.325Z,94.60
2022-09-29T03:17:17.102Z,94.80
2022-09-29T03:19:44.795Z,94.80
2022-09-29T03:22:14.058Z,94.70
2022-09-29T03:24:42.274Z,94.60
2022-09-29T03:27:10.929Z,94.60
2022-09-29T03:29:38.848Z,94.80
2022-09-29T03:32:07.148Z,94.70
2022-09-29T03:34:35.245Z,94.70
2022-09-29T03:37:04.076Z,94.70
2022-09-29T03:39:33.079Z,94.80
2022-09-29T03:42:00.865Z,94.70
2022-09-29T03:44:28.562Z,94.70
2022-09-29T03:46:56.203Z,94.50
2022-09-29T03:49:25.276Z,94.40
2022-09-29T03:51:53.272Z,94.30
2022-09-29T03:54:21.065Z,94.70
2022-09-29T03:56:50.700Z,94.80
2022-09-29T03:59:18.541Z,94.50
2022-09-29T04:01:46.343Z,94.40
2022-09-29T04:04:14.046Z,94.40
2022-09-29T04:06:41.742Z,94.20
2022-09-29T04:09:09.655Z,94.50
2022-09-29T04:11:37.640Z,94.20
2022-09-29T04:14:06.871Z,94.30
2022-09-29T04:16:34.666Z,94.00
2022-09-29T04:19:02.427Z,94.00
2022-09-29T04:21:30.151Z,93.90
2022-09-29T04:23:57.858Z,93.80
2022-09-29T04:26:25.615Z,93.80
2022-09-29T04:28:53.322Z,93.60
2022-09-29T04:31:22.476Z,93.50
2022-09-29T04:33:53.014Z,93.40
2022-09-29T04:36:20.707Z,93.60
2022-09-29T04:38:50.166Z,93.70
2022-09-29T04:41:18.166Z,93.90
2022-09-29T04:43:45.987Z,94.20
2022-09-29T04:46:15.043Z,94.20
2022-09-29T04:48:44.650Z,94.30
2022-09-29T04:51:12.401Z,94.20
2022-09-29T04:53:40.190Z,94.30
2022-09-29T04:56:09.028Z,94.50
2022-09-29T04:58:36.896Z,94.60
2022-09-29T05:01:07.714Z,94.60
2022-09-29T05:03:35.564Z,94.70
2022-09-29T05:06:04.836Z,94.80
2022-09-29T05:08:32.743Z,94.90
2022-09-29T05:11:04.988Z,94.80
2022-09-29T05:13:32.836Z,94.80
2022-09-29T05:16:01.053Z,94.80
2022-09-29T05:18:29.160Z,94.90
2022-09-29T05:21:22.936Z,95.00
2022-09-29T05:23:46.331Z,94.90
2022-09-29T05:26:14.498Z,95.50
2022-09-29T05:28:45.896Z,95.60
2022-09-29T05:31:13.870Z,95.60
2022-09-29T05:33:42.293Z,95.80
2022-09-29T05:36:12.281Z,95.90
2022-09-29T05:38:40.142Z,95.90
2022-09-29T05:41:11.995Z,96.10
2022-09-29T05:43:40.159Z,96.10
2022-09-29T05:46:09.919Z,96.10
2022-09-29T05:48:38.378Z,96.00
2022-09-29T05:51:10.227Z,95.60
2022-09-29T05:53:37.946Z,95.30
2022-09-29T05:56:07.227Z,95.20
2022-09-29T05:58:37.637Z,94.80
2022-09-29T06:01:07.736Z,94.50
2022-09-29T06:03:36.596Z,94.70
2022-09-29T06:06:08.660Z,95.00
2022-09-29T06:08:36.877Z,95.30
2022-09-29T06:11:07.071Z,95.50
2022-09-29T06:13:41.138Z,95.20
2022-09-29T06:16:11.616Z,95.40
2022-09-29T06:18:39.564Z,95.40
2022-09-29T06:21:09.859Z,95.60
2022-09-29T06:23:38.524Z,95.40
2022-09-29T06:26:09.366Z,95.30
2022-09-29T06:28:37.723Z,95.00
2022-09-29T06:31:09.079Z,94.60
2022-09-29T06:33:38.011Z,94.10
2022-09-29T06:36:25.890Z,93.80
2022-09-29T06:38:53.614Z,93.50
2022-09-29T06:41:21.707Z,93.30
2022-09-29T06:43:52.818Z,93.00
2022-09-29T06:46:22.434Z,93.10
2022-09-29T06:48:55.479Z,93.60
2022-09-29T06:51:27.288Z,93.70
2022-09-29T06:54:08.993Z,93.70
2022-09-29T06:56:41.803Z,93.30
2022-09-29T06:59:09.584Z,93.50
2022-09-29T07:01:38.817Z,93.30
2022-09-29T07:04:07.690Z,93.50
2022-09-29T07:06:35.613Z,93.20
2022-09-29T07:09:03.366Z,93.20
2022-09-29T07:11:31.041Z,93.00
2022-09-29T07:13:58.789Z,93.00
2022-09-29T07:16:26.527Z,92.70
2022-09-29T07:19:02.449Z,92.10
2022-09-29T07:21:32.415Z,90.90
2022-09-29T07:24:05.435Z,90.30
2022-09-29T07:26:34.296Z,88.90
2022-09-29T07:29:04.838Z,88.90
2022-09-29T07:31:42.604Z,88.50
2022-09-29T07:34:14.276Z,89.50
2022-09-29T07:36:42.091Z,89.70
2022-09-29T07:39:09.924Z,89.10
2022-09-29T07:41:38.985Z,89.00
2022-09-29T07:44:06.745Z,88.70
2022-09-29T07:46:34.602Z,87.80
2022-09-29T07:49:02.444Z,86.90
2022-09-29T07:51:31.553Z,86.70
2022-09-29T07:54:02.639Z,86.60
2022-09-29T07:56:30.511Z,87.00
2022-09-29T07:58:58.180Z,86.50
2022-09-29T08:01:26.402Z,86.10
2022-09-29T08:03:56.298Z,86.00
2022-09-29T08:06:25.464Z,84.90
2022-09-29T08:09:05.104Z,81.40
2022-09-29T08:11:34.829Z,80.20
2022-09-29T08:14:04.858Z,77.00
2022-09-29T08:16:32.887Z,72.80
2022-09-29T08:19:00.937Z,75.10
2022-09-29T08:21:30.020Z,73.60
2022-09-29T08:24:02.270Z,72.00
2022-09-29T08:26:41.391Z,68.40
2022-09-29T08:29:15.634Z,66.20
2022-09-29T08:31:44.722Z,63.30
2022-09-29T08:34:13.447Z,60.00
2022-09-29T08:36:41.980Z,59.80
2022-09-29T08:39:12.794Z,60.00
2022-09-29T08:41:51.606Z,58.20
2022-09-29T08:44:38.969Z,59.20
2022-09-29T08:47:17.849Z,58.30
2022-09-29T08:49:48.982Z,56.10
2022-09-29T08:52:19.854Z,61.30
2022-09-29T08:54:52.063Z,59.50
2022-09-29T08:57:21.527Z,57.70
2022-09-29T08:59:55.233Z,56.70
2022-09-29T09:02:55.838Z,55.30
2022-09-29T09:05:52.070Z,56.00
2022-09-29T09:08:36.545Z,57.20
2022-09-29T09:11:23.696Z,52.70
2022-09-29T09:14:07.804Z,51.50
2022-09-29T09:16:48.650Z,50.90
2022-09-29T09:19:39.038Z,50.50
2022-09-29T09:22:20.670Z,49.20
2022-09-29T09:25:00.698Z,49.50
2022-09-29T09:27:35.662Z,47.00
2022-09-29T09:30:07.318Z,46.10
2022-09-29T09:32:40.423Z,46.00
2022-09-29T09:35:29.507Z,45.10
2022-09-29T09:38:03.907Z,44.70
2022-09-29T09:40:39.643Z,44.90
2022-09-29T09:43:13.420Z,45.20
2022-09-29T09:45:48.990Z,46.30
2022-09-29T09:48:31.423Z,45.00
2022-09-29T09:51:11.411Z,44.30
2022-09-29T09:53:42.700Z,43.80
2022-09-29T09:56:24.697Z,44.70
2022-09-29T09:59:12.597Z,43.80
2022-09-29T10:01:41.140Z,43.20
2022-09-29T10:04:17.487Z,42.20
2022-09-29T10:06:46.391Z,41.30
2022-09-29T10:09:15.946Z,41.70
2022-09-29T10:11:44.690Z,42.30
2022-09-29T10:14:22.726Z,42.90
2022-09-29T10:16:55.644Z,43.10
2022-09-29T10:19:24.438Z,44.00
2022-09-29T10:21:53.375Z,46.30
2022-09-29T10:24:24.183Z,49.00
2022-09-29T10:26:57.680Z,51.20
2022-09-29T10:29:37.634Z,53.70
2022-09-29T10:32:08.273Z,56.30
2022-09-29T10:34:39.558Z,57.50
2022-09-29T10:37:23.467Z,59.50
2022-09-29T10:39:52.057Z,61.20
2022-09-29T10:42:25.414Z,63.10
2022-09-29T10:45:02.189Z,64.00
2022-09-29T10:47:30.007Z,65.80
2022-09-29T10:50:14.385Z,67.20
2022-09-29T10:52:46.020Z,68.20
2022-09-29T10:55:20.236Z,68.20
2022-09-29T10:57:48.697Z,68.50
2022-09-29T11:00:34.356Z,70.50
2022-09-29T11:03:08.488Z,70.00
2022-09-29T11:05:37.988Z,69.90
2022-09-29T11:08:12.386Z,69.60
2022-09-29T11:10:40.462Z,69.10
2022-09-29T11:13:35.634Z,71.30
2022-09-29T11:16:13.432Z,70.00
2022-09-29T11:18:43.858Z,69.60
2022-09-29T11:21:46.661Z,71.60
2022-09-29T11:24:17.618Z,73.30
2022-09-29T11:26:50.858Z,70.20
2022-09-29T11:29:33.273Z,71.90
2022-09-29T11:32:14.713Z,73.10
2022-09-29T11:34:52.670Z,72.40
2022-09-29T11:37:36.176Z,71.70
2022-09-29T11:40:13.254Z,71.70
2022-09-29T11:42:58.735Z,70.90
2022-09-29T11:45:34.374Z,70.70
2022-09-29T11:48:32.171Z,70.70
2022-09-29T11:51:08.361Z,70.80
2022-09-29T11:53:49.554Z,70.40
2022-09-29T11:56:31.793Z,71.00
2022-09-29T11:59:16.029Z,69.30
2022-09-29T12:01:58.459Z,70.50
2022-09-29T12:04:38.959Z,71.60
2022-09-29T12:07:17.311Z,71.00
2022-09-29T12:10:08.206Z,68.70
2022-09-29T12:12:45.250Z,68.70
2022-09-29T12:15:26.162Z,69.70
2022-09-29T12:17:59.792Z,68.80
2022-09-29T12:20:33.906Z,66.70
2022-09-29T12:23:05.998Z,69.90
2022-09-29T12:25:40.696Z,68.20
2022-09-29T12:28:14.938Z,67.60
2022-09-29T12:30:51.109Z,67.50
2022-09-29T12:33:26.086Z,69.70
2022-09-29T12:36:28.781Z,69.80
2022-09-29T12:39:01.532Z,73.00
2022-09-29T12:41:35.476Z,71.20
2022-09-29T12:44:13.577Z,74.20
2022-09-29T12:46:46.322Z,72.90
2022-09-29T12:49:20.521Z,70.60
2022-09-29T12:51:52.375Z,71.50
2022-09-29T12:54:23.821Z,70.90
2022-09-29T12:56:56.522Z,71.70
2022-09-29T12:59:33.863Z,73.30
2022-09-29T13:02:06.512Z,74.00
2022-09-29T13:04:54.758Z,74.30
2022-09-29T13:07:52.398Z,78.40
2022-09-29T13:10:35.738Z,76.10
2022-09-29T13:13:25.373Z,76.50
2022-09-29T13:16:03.013Z,77.90
2022-09-29T13:18:59.664Z,76.40
2022-09-29T13:21:42.016Z,78.40
2022-09-29T13:24:23.197Z,77.60
2022-09-29T13:27:09.826Z,76.60
2022-09-29T13:29:47.125Z,78.10
2022-09-29T13:32:15.542Z,78.80
2022-09-29T13:34:49.486Z,78.70
2022-09-29T13:37:19.650Z,76.90
2022-09-29T13:40:01.283Z,75.90
2022-09-29T13:42:48.207Z,75.30
2022-09-29T13:45:37.291Z,76.10
2022-09-29T13:48:38.519Z,77.40
2022-09-29T13:51:25.505Z,76.50
2022-09-29T13:54:22.009Z,76.90
2022-09-29T13:56:51.394Z,75.30
2022-09-29T13:59:25.238Z,78.70
2022-09-29T14:01:56.325Z,79.00
2022-09-29T14:04:45.926Z,79.00
2022-09-29T14:07:15.622Z,81.10
2022-09-29T14:09:47.651Z,83.70
2022-09-29T14:12:21.508Z,83.40
2022-09-29T14:14:57.081Z,84.90
2022-09-29T14:17:29.880Z,82.20
2022-09-29T14:20:04.482Z,84.00
2022-09-29T14:22:52.709Z,83.70
2022-09-29T14:25:50.538Z,84.90
2022-09-29T14:28:25.293Z,84.40
2022-09-29T14:31:00.925Z,84.40
2022-09-29T14:33:35.531Z,86.30
2022-09-29T14:36:08.181Z,87.10
2022-09-29T14:38:39.777Z,88.10
2022-09-29T14:41:27.398Z,88.30
2022-09-29T14:43:58.245Z,85.00
2022-09-29T14:46:55.172Z,85.80
2022-09-29T14:49:54.488Z,86.90
2022-09-29T14:52:33.420Z,85.70
2022-09-29T14:57:52.303Z,84.60
2022-09-29T15:00:22.406Z,85.30
2022-09-29T15:02:59.615Z,84.10
2022-09-29T15:05:34.930Z,84.90
2022-09-29T15:08:04.590Z,85.10
2022-09-29T15:10:40.322Z,85.40
2022-09-29T15:13:24.706Z,86.40
2022-09-29T15:15:58.970Z,85.10
2022-09-29T15:18:41.661Z,84.10
2022-09-29T15:21:20.399Z,83.80
2022-09-29T15:24:08.151Z,84.10
2022-09-29T15:26:36.949Z,83.10
2022-09-29T15:29:07.644Z,83.30
2022-09-29T15:31:36.546Z,84.10
2022-09-29T15:34:05.844Z,84.50
2022-09-29T15:36:37.927Z,84.40
2022-09-29T15:39:12.129Z,84.40
2022-09-29T15:41:40.234Z,85.00
2022-09-29T15:44:18.328Z,86.20
2022-09-29T15:46:51.410Z,86.20
2022-09-29T15:49:21.778Z,85.40
2022-09-29T15:51:58.439Z,85.20
2022-09-29T15:54:30.421Z,84.90
2022-09-29T15:57:12.161Z,84.40
2022-09-29T15:59:42.820Z,85.80
2022-09-29T16:02:20.964Z,86.50
2022-09-29T16:04:53.236Z,86.40
2022-09-29T16:07:24.847Z,86.50
2022-09-29T16:09:52.922Z,86.60
2022-09-29T16:12:23.900Z,86.40
2022-09-29T16:14:58.017Z,86.70
2022-09-29T16:17:26.682Z,86.80
2022-09-29T16:19:55.995Z,87.10
2022-09-29T16:22:26.906Z,87.40
2022-09-29T16:25:09.437Z,88.10
2022-09-29T16:27:48.723Z,88.60
2022-09-29T16:30:21.730Z,88.50
2022-09-29T16:32:57.046Z,88.40
2022-09-29T16:35:42.894Z,88.60
2022-09-29T16:38:18.961Z,88.20
2022-09-29T16:40:47.374Z,88.40
2022-09-29T16:43:23.845Z,88.60
2022-09-29T16:45:53.454Z,88.40
2022-09-29T16:48:22.014Z,87.70
2022-09-29T16:50:56.358Z,87.50
2022-09-29T16:53:28.078Z,87.80
2022-09-29T16:55:59.980Z,88.00
2022-09-29T16:58:29.685Z,88.50
2022-09-29T17:00:58.106Z,89.00
2022-09-29T17:03:25.887Z,89.20
2022-09-29T17:05:55.000Z,89.20
2022-09-29T17:08:25.558Z,89.10
2022-09-29T17:10:55.774Z,89.30
2022-09-29T17:13:24.858Z,89.70
2022-09-29T17:15:54.048Z,89.70
2022-09-29T17:18:24.959Z,89.50
2022-09-29T17:20:52.754Z,89.40
2022-09-29T17:23:21.855Z,89.60
2022-09-29T17:25:50.825Z,89.70
2022-09-29T17:28:22.266Z,89.70
2022-09-29T17:30:50.901Z,90.10
2022-09-29T17:33:20.304Z,90.00
2022-09-29T17:35:55.289Z,90.10
2022-09-29T17:38:26.906Z,90.90
2022-09-29T17:40:57.312Z,91.90
2022-09-29T17:43:25.395Z,92.10
2022-09-29T17:45:58.510Z,92.20
2022-09-29T17:48:26.696Z,92.50
2022-09-29T17:50:56.417Z,92.50
2022-09-29T17:53:26.430Z,92.00
2022-09-29T17:55:56.994Z,92.20
2022-09-29T17:58:25.303Z,92.60
2022-09-29T18:00:56.872Z,92.70
2022-09-29T18:03:25.236Z,92.90
2022-09-29T18:05:56.846Z,93.10
2022-09-29T18:08:27.091Z,92.80
2022-09-29T18:10:56.694Z,92.60
2022-09-29T18:13:27.177Z,92.60
2022-09-29T18:15:55.031Z,92.70
2022-09-29T18:18:23.918Z,92.70
2022-09-29T18:20:52.203Z,93.00
2022-09-29T18:23:22.981Z,92.70
2022-09-29T18:25:53.318Z,92.90
2022-09-29T18:28:21.568Z,92.90
2022-09-29T18:30:52.861Z,93.10
2022-09-29T18:33:28.282Z,93.20
2022-09-29T18:36:00.177Z,93.30
2022-09-29T18:38:30.874Z,93.40
2022-09-29T18:41:01.303Z,93.50
2022-09-29T18:43:29.323Z,93.50
2022-09-29T18:45:58.128Z,93.50
2022-09-29T18:48:26.404Z,93.80
2022-09-29T18:50:56.583Z,93.90
2022-09-29T18:53:25.039Z,93.60
2022-09-29T18:55:58.207Z,93.40
2022-09-29T18:58:27.203Z,92.80
2022-09-29T19:00:56.205Z,93.20
2022-09-29T19:03:26.243Z,93.80
2022-09-29T19:05:55.239Z,93.70
2022-09-29T19:08:23.296Z,93.70
2022-09-29T19:10:52.562Z,93.90
2022-09-29T19:13:21.283Z,93.90
2022-09-29T19:15:51.163Z,94.00
2022-09-29T19:18:23.913Z,94.40
2022-09-29T19:20:54.425Z,94.50
2022-09-29T19:23:24.675Z,94.40
2022-09-29T19:25:53.632Z,94.30
2022-09-29T19:28:28.089Z,94.20
2022-09-29T19:31:05.414Z,94.20
2022-09-29T19:33:33.438Z,94.40
2022-09-29T19:36:05.054Z,94.40
2022-09-29T19:38:36.955Z,94.20
2022-09-29T19:41:06.374Z,94.10
2022-09-29T19:43:34.103Z,93.70
2022-09-29T19:46:11.875Z,93.70
2022-09-29T19:48:40.212Z,93.70
2022-09-29T19:51:22.075Z,94.00
2022-09-29T19:54:10.203Z,94.00
2022-09-29T19:56:40.193Z,94.30
2022-09-29T19:59:10.293Z,94.20
2022-09-29T20:01:39.970Z,94.10
2022-09-29T20:04:07.863Z,93.90
2022-09-29T20:06:36.604Z,94.10
2022-09-29T20:09:05.368Z,94.00
2022-09-29T20:11:33.897Z,94.00
2022-09-29T20:14:03.893Z,93.80
2022-09-29T20:16:33.460Z,93.90
2022-09-29T20:19:02.506Z,94.40
2022-09-29T20:21:30.763Z,94.40
2022-09-29T20:23:59.050Z,94.30
2022-09-29T20:26:26.758Z,94.20
2022-09-29T20:28:54.960Z,94.30
2022-09-29T20:31:23.978Z,94.30
2022-09-29T20:33:53.932Z,94.10
2022-09-29T20:36:23.416Z,94.00
2022-09-29T20:38:52.359Z,93.70
2022-09-29T20:41:20.424Z,93.80
2022-09-29T20:43:49.381Z,93.90
2022-09-29T20:46:18.054Z,94.00
2022-09-29T20:48:45.825Z,94.10
2022-09-29T20:51:16.033Z,94.10
2022-09-29T20:53:50.906Z,94.10
2022-09-29T20:56:19.661Z,94.20
2022-09-29T20:58:49.149Z,94.10
2022-09-29T21:01:20.863Z,94.10
2022-09-29T21:03:53.030Z,94.40
2022-09-29T21:06:21.770Z,94.30
2022-09-29T21:08:51.186Z,94.10
2022-09-29T21:11:20.355Z,94.00
2022-09-29T21:13:48.506Z,94.00
2022-09-29T21:16:16.424Z,94.00
2022-09-29T21:18:44.589Z,94.10
2022-09-29T21:21:12.474Z,94.30
2022-09-29T21:23:42.115Z,94.20
2022-09-29T21:26:14.037Z,94.20
2022-09-29T21:28:43.286Z,94.20
2022-09-29T21:31:13.086Z,94.30
2022-09-29T21:33:42.551Z,94.70
2022-09-29T21:36:13.047Z,95.00
2022-09-29T21:38:42.915Z,95.40
2022-09-29T21:41:17.551Z,95.40
2022-09-29T21:43:49.587Z,95.30
2022-09-29T21:46:19.212Z,95.20
2022-09-29T21:48:50.836Z,95.20
2022-09-29T21:51:21.227Z,95.20
2022-09-29T21:53:49.050Z,95.20
2022-09-29T21:56:20.693Z,95.10
2022-09-29T21:58:50.746Z,94.70
2022-09-29T22:01:18.743Z,94.60
2022-09-29T22:03:49.958Z,94.60
2022-09-29T22:06:20.029Z,94.80
2022-09-29T22:08:48.534Z,94.80
2022-09-29T22:11:18.959Z,94.90
2022-09-29T22:13:49.941Z,95.00
2022-09-29T22:16:19.639Z,95.00
2022-09-29T22:18:56.262Z,94.80
2022-09-29T22:21:33.935Z,94.70
2022-09-29T22:24:03.869Z,94.80
2022-09-29T22:26:33.400Z,94.50
2022-09-29T22:29:02.663Z,94.60
2022-09-29T22:31:31.684Z,94.60
2022-09-29T22:34:01.520Z,94.60
2022-09-29T22:36:31.369Z,94.40
2022-09-29T22:38:59.350Z,94.00
2022-09-29T22:41:27.056Z,94.20
2022-09-29T22:43:58.871Z,94.50
2022-09-29T22:46:28.924Z,94.50
2022-09-29T22:48:57.340Z,94.60
2022-09-29T22:51:25.422Z,94.60
2022-09-29T22:53:53.209Z,94.60
2022-09-29T22:56:31.586Z,94.40
2022-09-29T22:59:03.071Z,94.50
2022-09-29T23:01:31.092Z,94.40
2022-09-29T23:03:58.876Z,94.60
2022-09-29T23:06:26.806Z,94.90
2022-09-29T23:08:55.570Z,95.20
2022-09-29T23:11:23.830Z,95.40
2022-09-29T23:13:52.635Z,95.70
2022-09-29T23:16:24.190Z,95.80
2022-09-29T23:18:54.959Z,95.50
2022-09-29T23:21:25.754Z,95.30
2022-09-29T23:23:56.303Z,95.10
2022-09-29T23:26:25.021Z,95.10
2022-09-29T23:28:53.264Z,95.00
2022-09-29T23:31:21.012Z,94.80
2022-09-29T23:33:54.816Z,94.70
2022-09-29T23:36:23.570Z,94.70
2022-09-29T23:39:05.275Z,95.00
2022-09-29T23:41:33.898Z,95.00
2022-09-29T23:44:04.279Z,95.00
2022-09-29T23:46:33.899Z,94.80
2022-09-29T23:49:07.436Z,95.00
2022-09-29T23:51:36.314Z,95.10
2022-09-29T23:54:05.258Z,95.40
2022-09-29T23:56:33.014Z,95.30
2022-09-29T23:59:00.811Z,95.30
